sensor_id;sensor_type;location;lat;lon;timestamp;temperature;humidity
83019;DHT22;72834;40.104;18.336;2024-03-02T00:01:09;13.20;99.90
83019;DHT22;72834;40.104;18.336;2024-03-02T00:03:38;13.20;99.90
83019;DHT22;72834;40.104;18.336;2024-03-02T00:06:05;13.30;99.90
83019;DHT22;72834;40.104;18.336;2024-03-02T00:08:32;13.30;99.90
83019;DHT22;72834;40.104;18.336;2024-03-02T00:11:00;13.20;99.90
83019;DHT22;72834;40.104;18.336;2024-03-02T00:13:27;13.30;99.90
83019;DHT22;72834;40.104;18.336;2024-03-02T00:15:55;13.20;99.90
83019;DHT22;72834;40.104;18.336;2024-03-02T00:18:26;13.20;99.90
83019;DHT22;72834;40.104;18.336;2024-03-02T00:20:54;13.20;99.90
83019;DHT22;72834;40.104;18.336;2024-03-02T00:23:26;13.20;99.90
83019;DHT22;72834;40.104;18.336;2024-03-02T00:25:56;13.20;99.90
83019;DHT22;72834;40.104;18.336;2024-03-02T00:28:28;13.20;99.90
83019;DHT22;72834;40.104;18.336;2024-03-02T00:31:06;13.20;99.90
83019;DHT22;72834;40.104;18.336;2024-03-02T00:33:35;13.10;99.90
83019;DHT22;72834;40.104;18.336;2024-03-02T00:36:03;13.20;99.90
83019;DHT22;72834;40.104;18.336;2024-03-02T00:38:31;13.20;99.90
83019;DHT22;72834;40.104;18.336;2024-03-02T00:40:59;13.20;99.90
83019;DHT22;72834;40.104;18.336;2024-03-02T00:46:07;13.20;99.90
83019;DHT22;72834;40.104;18.336;2024-03-02T00:48:33;13.20;99.90
83019;DHT22;72834;40.104;18.336;2024-03-02T00:51:03;13.30;99.90
83019;DHT22;72834;40.104;18.336;2024-03-02T00:53:33;13.20;99.90
83019;DHT22;72834;40.104;18.336;2024-03-02T00:55:59;13.30;99.90
83019;DHT22;72834;40.104;18.336;2024-03-02T00:58:27;13.30;99.90
83019;DHT22;72834;40.104;18.336;2024-03-02T01:00:53;13.30;99.90
83019;DHT22;72834;40.104;18.336;2024-03-02T01:03:19;13.30;99.90
83019;DHT22;72834;40.104;18.336;2024-03-02T01:05:45;13.40;99.90
83019;DHT22;72834;40.104;18.336;2024-03-02T01:08:12;13.30;99.90
83019;DHT22;72834;40.104;18.336;2024-03-02T01:10:38;13.30;99.90
83019;DHT22;72834;40.104;18.336;2024-03-02T01:13:04;13.30;99.90
83019;DHT22;72834;40.104;18.336;2024-03-02T01:15:30;13.40;99.90
83019;DHT22;72834;40.104;18.336;2024-03-02T01:17:57;13.30;99.90
83019;DHT22;72834;40.104;18.336;2024-03-02T01:20:23;13.30;99.90
83019;DHT22;72834;40.104;18.336;2024-03-02T01:22:51;13.30;99.90
83019;DHT22;72834;40.104;18.336;2024-03-02T01:25:18;13.30;99.90
83019;DHT22;72834;40.104;18.336;2024-03-02T01:27:44;13.30;99.90
83019;DHT22;72834;40.104;18.336;2024-03-02T01:30:11;13.30;99.90
83019;DHT22;72834;40.104;18.336;2024-03-02T01:32:40;13.20;99.90
83019;DHT22;72834;40.104;18.336;2024-03-02T01:35:06;13.20;99.90
83019;DHT22;72834;40.104;18.336;2024-03-02T01:37:33;13.20;99.90
83019;DHT22;72834;40.104;18.336;2024-03-02T01:40:00;13.20;99.90
83019;DHT22;72834;40.104;18.336;2024-03-02T01:42:27;13.30;99.90
83019;DHT22;72834;40.104;18.336;2024-03-02T01:44:53;13.30;99.90
83019;DHT22;72834;40.104;18.336;2024-03-02T01:47:19;13.30;99.90
83019;DHT22;72834;40.104;18.336;2024-03-02T01:49:45;13.30;99.90
83019;DHT22;72834;40.104;18.336;2024-03-02T01:52:12;13.30;99.90
83019;DHT22;72834;40.104;18.336;2024-03-02T01:54:38;13.20;99.90
83019;DHT22;72834;40.104;18.336;2024-03-02T01:57:04;13.30;99.90
83019;DHT22;72834;40.104;18.336;2024-03-02T01:59:30;13.30;99.90
83019;DHT22;72834;40.104;18.336;2024-03-02T02:01:57;13.30;99.90
83019;DHT22;72834;40.104;18.336;2024-03-02T02:04:24;13.30;99.90
83019;DHT22;72834;40.104;18.336;2024-03-02T02:06:56;13.20;99.90
83019;DHT22;72834;40.104;18.336;2024-03-02T02:09:23;13.20;99.90
83019;DHT22;72834;40.104;18.336;2024-03-02T02:11:51;13.20;99.90
83019;DHT22;72834;40.104;18.336;2024-03-02T02:14:18;13.20;99.90
83019;DHT22;72834;40.104;18.336;2024-03-02T02:16:44;13.30;99.90
83019;DHT22;72834;40.104;18.336;2024-03-02T02:19:10;13.30;99.90
83019;DHT22;72834;40.104;18.336;2024-03-02T02:21:37;13.30;99.90
83019;DHT22;72834;40.104;18.336;2024-03-02T02:24:03;13.30;99.90
83019;DHT22;72834;40.104;18.336;2024-03-02T02:26:30;13.30;99.90
83019;DHT22;72834;40.104;18.336;2024-03-02T02:28:56;13.30;99.90
83019;DHT22;72834;40.104;18.336;2024-03-02T02:31:22;13.30;99.90
83019;DHT22;72834;40.104;18.336;2024-03-02T02:33:49;13.30;99.90
83019;DHT22;72834;40.104;18.336;2024-03-02T02:36:15;13.30;99.90
83019;DHT22;72834;40.104;18.336;2024-03-02T02:38:45;13.30;99.90
83019;DHT22;72834;40.104;18.336;2024-03-02T02:41:13;13.30;99.90
83019;DHT22;72834;40.104;18.336;2024-03-02T02:43:39;13.20;99.90
83019;DHT22;72834;40.104;18.336;2024-03-02T02:46:06;13.20;99.90
83019;DHT22;72834;40.104;18.336;2024-03-02T02:48:32;13.10;99.90
83019;DHT22;72834;40.104;18.336;2024-03-02T02:50:59;13.20;99.90
83019;DHT22;72834;40.104;18.336;2024-03-02T02:53:25;13.20;99.90
83019;DHT22;72834;40.104;18.336;2024-03-02T02:55:51;13.30;99.90
83019;DHT22;72834;40.104;18.336;2024-03-02T02:58:18;13.20;99.90
83019;DHT22;72834;40.104;18.336;2024-03-02T03:00:44;13.20;99.90
83019;DHT22;72834;40.104;18.336;2024-03-02T03:03:10;13.10;99.90
83019;DHT22;72834;40.104;18.336;2024-03-02T03:05:36;13.10;99.90
83019;DHT22;72834;40.104;18.336;2024-03-02T03:08:02;13.20;99.90
83019;DHT22;72834;40.104;18.336;2024-03-02T03:10:29;13.10;99.90
83019;DHT22;72834;40.104;18.336;2024-03-02T03:12:55;13.10;99.90
83019;DHT22;72834;40.104;18.336;2024-03-02T03:15:22;13.10;99.90
83019;DHT22;72834;40.104;18.336;2024-03-02T03:17:48;13.00;99.90
83019;DHT22;72834;40.104;18.336;2024-03-02T03:20:14;13.00;99.90
83019;DHT22;72834;40.104;18.336;2024-03-02T03:22:41;13.00;99.90
83019;DHT22;72834;40.104;18.336;2024-03-02T03:25:07;13.00;99.90
83019;DHT22;72834;40.104;18.336;2024-03-02T03:27:37;12.90;99.90
83019;DHT22;72834;40.104;18.336;2024-03-02T03:30:03;12.90;99.90
83019;DHT22;72834;40.104;18.336;2024-03-02T03:32:32;12.90;99.90
83019;DHT22;72834;40.104;18.336;2024-03-02T03:34:58;12.90;99.90
83019;DHT22;72834;40.104;18.336;2024-03-02T03:37:24;12.90;99.90
83019;DHT22;72834;40.104;18.336;2024-03-02T03:39:52;12.90;99.90
83019;DHT22;72834;40.104;18.336;2024-03-02T03:42:19;12.90;99.90
83019;DHT22;72834;40.104;18.336;2024-03-02T03:44:45;12.90;99.90
83019;DHT22;72834;40.104;18.336;2024-03-02T03:47:11;12.90;99.90
83019;DHT22;72834;40.104;18.336;2024-03-02T03:49:37;12.90;99.90
83019;DHT22;72834;40.104;18.336;2024-03-02T03:52:04;12.90;99.90
83019;DHT22;72834;40.104;18.336;2024-03-02T03:54:30;12.90;99.90
83019;DHT22;72834;40.104;18.336;2024-03-02T03:56:56;12.90;99.90
83019;DHT22;72834;40.104;18.336;2024-03-02T03:59:23;12.80;99.90
83019;DHT22;72834;40.104;18.336;2024-03-02T04:01:50;12.80;99.90
83019;DHT22;72834;40.104;18.336;2024-03-02T04:04:16;12.80;99.90
83019;DHT22;72834;40.104;18.336;2024-03-02T04:06:43;12.80;99.90
83019;DHT22;72834;40.104;18.336;2024-03-02T04:09:09;12.70;99.90
83019;DHT22;72834;40.104;18.336;2024-03-02T04:11:35;12.60;99.90
83019;DHT22;72834;40.104;18.336;2024-03-02T04:14:01;12.60;99.90
83019;DHT22;72834;40.104;18.336;2024-03-02T04:16:28;12.60;99.90
83019;DHT22;72834;40.104;18.336;2024-03-02T04:18:54;12.60;99.90
83019;DHT22;72834;40.104;18.336;2024-03-02T04:21:20;12.70;99.90
83019;DHT22;72834;40.104;18.336;2024-03-02T04:23:47;12.60;99.90
83019;DHT22;72834;40.104;18.336;2024-03-02T04:26:13;12.50;99.90
83019;DHT22;72834;40.104;18.336;2024-03-02T04:28:41;12.40;99.90
83019;DHT22;72834;40.104;18.336;2024-03-02T04:31:07;12.40;99.90
83019;DHT22;72834;40.104;18.336;2024-03-02T04:33:33;12.40;99.90
83019;DHT22;72834;40.104;18.336;2024-03-02T04:36:00;12.40;99.90
83019;DHT22;72834;40.104;18.336;2024-03-02T04:38:26;12.40;99.90
83019;DHT22;72834;40.104;18.336;2024-03-02T04:40:52;12.40;99.90
83019;DHT22;72834;40.104;18.336;2024-03-02T04:43:18;12.30;99.90
83019;DHT22;72834;40.104;18.336;2024-03-02T04:45:45;12.30;99.90
83019;DHT22;72834;40.104;18.336;2024-03-02T04:48:11;12.30;99.90
83019;DHT22;72834;40.104;18.336;2024-03-02T04:50:37;12.30;99.90
83019;DHT22;72834;40.104;18.336;2024-03-02T04:53:03;12.30;99.90
83019;DHT22;72834;40.104;18.336;2024-03-02T04:55:30;12.40;99.90
83019;DHT22;72834;40.104;18.336;2024-03-02T04:58:05;12.40;99.90
83019;DHT22;72834;40.104;18.336;2024-03-02T05:00:33;12.40;99.90
83019;DHT22;72834;40.104;18.336;2024-03-02T05:02:59;12.40;99.90
83019;DHT22;72834;40.104;18.336;2024-03-02T05:05:25;12.30;99.90
83019;DHT22;72834;40.104;18.336;2024-03-02T05:07:52;12.40;99.90
83019;DHT22;72834;40.104;18.336;2024-03-02T05:10:19;12.30;99.90
83019;DHT22;72834;40.104;18.336;2024-03-02T05:12:45;12.30;99.90
83019;DHT22;72834;40.104;18.336;2024-03-02T05:15:13;12.30;99.90
83019;DHT22;72834;40.104;18.336;2024-03-02T05:17:40;12.20;99.90
83019;DHT22;72834;40.104;18.336;2024-03-02T05:20:09;12.20;99.90
83019;DHT22;72834;40.104;18.336;2024-03-02T05:22:39;12.20;99.90
83019;DHT22;72834;40.104;18.336;2024-03-02T05:25:08;12.20;99.90
83019;DHT22;72834;40.104;18.336;2024-03-02T05:27:36;12.20;99.90
83019;DHT22;72834;40.104;18.336;2024-03-02T05:30:03;12.30;99.90
83019;DHT22;72834;40.104;18.336;2024-03-02T05:32:33;12.30;99.90
83019;DHT22;72834;40.104;18.336;2024-03-02T05:35:00;12.20;99.90
83019;DHT22;72834;40.104;18.336;2024-03-02T05:37:26;12.30;99.90
83019;DHT22;72834;40.104;18.336;2024-03-02T05:39:52;12.20;99.90
83019;DHT22;72834;40.104;18.336;2024-03-02T05:42:19;12.20;99.90
83019;DHT22;72834;40.104;18.336;2024-03-02T05:44:46;12.20;99.90
83019;DHT22;72834;40.104;18.336;2024-03-02T05:47:12;12.30;99.90
83019;DHT22;72834;40.104;18.336;2024-03-02T05:49:39;12.30;99.90
83019;DHT22;72834;40.104;18.336;2024-03-02T05:52:05;12.30;99.90
83019;DHT22;72834;40.104;18.336;2024-03-02T05:54:31;12.40;99.90
83019;DHT22;72834;40.104;18.336;2024-03-02T05:56:58;12.40;99.90
83019;DHT22;72834;40.104;18.336;2024-03-02T05:59:43;12.40;99.90
83019;DHT22;72834;40.104;18.336;2024-03-02T06:02:12;12.40;99.90
83019;DHT22;72834;40.104;18.336;2024-03-02T06:04:38;12.40;99.90
83019;DHT22;72834;40.104;18.336;2024-03-02T06:07:05;12.40;99.90
83019;DHT22;72834;40.104;18.336;2024-03-02T06:09:31;12.40;99.90
83019;DHT22;72834;40.104;18.336;2024-03-02T06:11:57;12.40;99.90
83019;DHT22;72834;40.104;18.336;2024-03-02T06:14:23;12.50;99.90
83019;DHT22;72834;40.104;18.336;2024-03-02T06:16:49;12.50;99.90
83019;DHT22;72834;40.104;18.336;2024-03-02T06:19:16;12.50;99.90
83019;DHT22;72834;40.104;18.336;2024-03-02T06:21:42;12.50;99.90
83019;DHT22;72834;40.104;18.336;2024-03-02T06:24:08;12.50;99.90
83019;DHT22;72834;40.104;18.336;2024-03-02T06:26:35;12.60;99.90
83019;DHT22;72834;40.104;18.336;2024-03-02T06:29:01;12.70;99.90
83019;DHT22;72834;40.104;18.336;2024-03-02T06:31:28;12.70;99.90
83019;DHT22;72834;40.104;18.336;2024-03-02T06:33:55;12.80;99.90
83019;DHT22;72834;40.104;18.336;2024-03-02T06:36:22;12.90;99.90
83019;DHT22;72834;40.104;18.336;2024-03-02T06:38:49;12.90;99.90
83019;DHT22;72834;40.104;18.336;2024-03-02T06:41:15;12.90;99.90
83019;DHT22;72834;40.104;18.336;2024-03-02T06:43:41;13.10;99.90
83019;DHT22;72834;40.104;18.336;2024-03-02T06:46:08;13.10;99.90
83019;DHT22;72834;40.104;18.336;2024-03-02T06:48:35;13.20;99.90
83019;DHT22;72834;40.104;18.336;2024-03-02T06:51:01;13.30;99.90
83019;DHT22;72834;40.104;18.336;2024-03-02T06:53:27;13.40;99.90
83019;DHT22;72834;40.104;18.336;2024-03-02T06:55:54;13.60;99.90
83019;DHT22;72834;40.104;18.336;2024-03-02T06:58:20;13.70;99.90
83019;DHT22;72834;40.104;18.336;2024-03-02T07:00:47;13.90;99.90
83019;DHT22;72834;40.104;18.336;2024-03-02T07:03:14;14.00;99.90
83019;DHT22;72834;40.104;18.336;2024-03-02T07:05:40;14.20;99.90
83019;DHT22;72834;40.104;18.336;2024-03-02T07:08:07;14.30;99.90
83019;DHT22;72834;40.104;18.336;2024-03-02T07:10:34;14.40;99.90
83019;DHT22;72834;40.104;18.336;2024-03-02T07:13:00;14.50;99.90
83019;DHT22;72834;40.104;18.336;2024-03-02T07:15:27;14.60;99.90
83019;DHT22;72834;40.104;18.336;2024-03-02T07:17:53;14.80;99.90
83019;DHT22;72834;40.104;18.336;2024-03-02T07:20:19;14.80;99.90
83019;DHT22;72834;40.104;18.336;2024-03-02T07:22:45;14.90;99.90
83019;DHT22;72834;40.104;18.336;2024-03-02T07:25:12;15.00;99.90
83019;DHT22;72834;40.104;18.336;2024-03-02T07:27:39;15.10;99.90
83019;DHT22;72834;40.104;18.336;2024-03-02T07:30:06;15.20;99.90
83019;DHT22;72834;40.104;18.336;2024-03-02T07:32:33;15.20;99.90
83019;DHT22;72834;40.104;18.336;2024-03-02T07:34:59;15.30;99.90
83019;DHT22;72834;40.104;18.336;2024-03-02T07:37:28;15.30;99.90
83019;DHT22;72834;40.104;18.336;2024-03-02T07:39:55;15.30;99.90
83019;DHT22;72834;40.104;18.336;2024-03-02T07:42:21;15.40;99.90
83019;DHT22;72834;40.104;18.336;2024-03-02T07:44:47;15.40;99.90
83019;DHT22;72834;40.104;18.336;2024-03-02T07:47:13;15.40;99.90
83019;DHT22;72834;40.104;18.336;2024-03-02T07:49:40;15.40;99.90
83019;DHT22;72834;40.104;18.336;2024-03-02T07:52:06;15.40;99.90
83019;DHT22;72834;40.104;18.336;2024-03-02T07:54:33;15.40;99.90
83019;DHT22;72834;40.104;18.336;2024-03-02T07:57:00;15.20;99.90
83019;DHT22;72834;40.104;18.336;2024-03-02T07:59:26;15.20;99.90
83019;DHT22;72834;40.104;18.336;2024-03-02T08:01:53;15.20;99.90
83019;DHT22;72834;40.104;18.336;2024-03-02T08:04:21;15.30;99.90
83019;DHT22;72834;40.104;18.336;2024-03-02T08:06:47;15.40;99.90
83019;DHT22;72834;40.104;18.336;2024-03-02T08:09:13;15.50;99.90
83019;DHT22;72834;40.104;18.336;2024-03-02T08:11:40;15.50;99.90
83019;DHT22;72834;40.104;18.336;2024-03-02T08:14:06;15.60;99.90
83019;DHT22;72834;40.104;18.336;2024-03-02T08:16:32;15.50;99.90
83019;DHT22;72834;40.104;18.336;2024-03-02T08:18:59;15.60;99.90
83019;DHT22;72834;40.104;18.336;2024-03-02T08:21:25;15.60;99.90
83019;DHT22;72834;40.104;18.336;2024-03-02T08:23:52;15.70;99.90
83019;DHT22;72834;40.104;18.336;2024-03-02T08:26:18;15.80;99.90
83019;DHT22;72834;40.104;18.336;2024-03-02T08:28:44;16.00;99.90
83019;DHT22;72834;40.104;18.336;2024-03-02T08:31:11;16.30;99.90
83019;DHT22;72834;40.104;18.336;2024-03-02T08:33:37;16.60;99.90
83019;DHT22;72834;40.104;18.336;2024-03-02T08:36:04;16.60;99.90
83019;DHT22;72834;40.104;18.336;2024-03-02T08:38:31;16.80;99.90
83019;DHT22;72834;40.104;18.336;2024-03-02T08:40:57;16.80;99.90
83019;DHT22;72834;40.104;18.336;2024-03-02T08:43:24;16.90;99.90
83019;DHT22;72834;40.104;18.336;2024-03-02T08:45:51;17.00;99.90
83019;DHT22;72834;40.104;18.336;2024-03-02T08:48:17;16.90;99.90
83019;DHT22;72834;40.104;18.336;2024-03-02T08:50:43;16.80;99.90
83019;DHT22;72834;40.104;18.336;2024-03-02T08:53:10;16.60;99.90
83019;DHT22;72834;40.104;18.336;2024-03-02T08:55:36;16.50;99.90
83019;DHT22;72834;40.104;18.336;2024-03-02T08:58:02;16.30;99.90
83019;DHT22;72834;40.104;18.336;2024-03-02T09:00:29;16.10;99.90
83019;DHT22;72834;40.104;18.336;2024-03-02T09:02:55;16.00;99.90
83019;DHT22;72834;40.104;18.336;2024-03-02T09:05:21;15.90;99.90
83019;DHT22;72834;40.104;18.336;2024-03-02T09:07:48;15.80;99.90
83019;DHT22;72834;40.104;18.336;2024-03-02T09:10:14;15.80;99.90
83019;DHT22;72834;40.104;18.336;2024-03-02T09:12:40;15.80;99.90
83019;DHT22;72834;40.104;18.336;2024-03-02T09:15:07;15.80;99.90
83019;DHT22;72834;40.104;18.336;2024-03-02T09:17:33;15.70;99.90
83019;DHT22;72834;40.104;18.336;2024-03-02T09:20:00;15.70;99.90
83019;DHT22;72834;40.104;18.336;2024-03-02T09:22:26;15.70;99.90
83019;DHT22;72834;40.104;18.336;2024-03-02T09:24:52;15.60;99.90
83019;DHT22;72834;40.104;18.336;2024-03-02T09:27:19;15.50;99.90
83019;DHT22;72834;40.104;18.336;2024-03-02T09:29:45;15.50;99.90
83019;DHT22;72834;40.104;18.336;2024-03-02T09:32:14;15.40;99.90
83019;DHT22;72834;40.104;18.336;2024-03-02T09:34:42;15.30;99.90
83019;DHT22;72834;40.104;18.336;2024-03-02T09:37:09;15.30;99.90
83019;DHT22;72834;40.104;18.336;2024-03-02T09:39:35;15.30;99.90
83019;DHT22;72834;40.104;18.336;2024-03-02T09:42:02;15.40;99.90
83019;DHT22;72834;40.104;18.336;2024-03-02T09:44:30;15.50;99.90
83019;DHT22;72834;40.104;18.336;2024-03-02T09:46:56;15.70;99.90
83019;DHT22;72834;40.104;18.336;2024-03-02T09:49:22;15.80;99.90
83019;DHT22;72834;40.104;18.336;2024-03-02T09:51:49;15.90;99.90
83019;DHT22;72834;40.104;18.336;2024-03-02T09:54:16;16.10;99.90
83019;DHT22;72834;40.104;18.336;2024-03-02T09:56:47;16.20;99.90
83019;DHT22;72834;40.104;18.336;2024-03-02T09:59:13;16.30;99.90
83019;DHT22;72834;40.104;18.336;2024-03-02T10:01:59;16.30;99.90
83019;DHT22;72834;40.104;18.336;2024-03-02T10:04:26;16.40;99.90
83019;DHT22;72834;40.104;18.336;2024-03-02T10:07:12;16.60;99.90
83019;DHT22;72834;40.104;18.336;2024-03-02T10:09:39;16.90;99.90
83019;DHT22;72834;40.104;18.336;2024-03-02T10:12:07;16.90;99.90
83019;DHT22;72834;40.104;18.336;2024-03-02T10:14:34;17.00;99.90
83019;DHT22;72834;40.104;18.336;2024-03-02T10:17:08;16.90;99.90
83019;DHT22;72834;40.104;18.336;2024-03-02T10:19:35;16.90;99.90
83019;DHT22;72834;40.104;18.336;2024-03-02T10:22:04;17.00;99.90
83019;DHT22;72834;40.104;18.336;2024-03-02T10:27:27;17.20;99.90
83019;DHT22;72834;40.104;18.336;2024-03-02T10:29:53;17.40;99.90
83019;DHT22;72834;40.104;18.336;2024-03-02T10:32:22;17.40;99.90
83019;DHT22;72834;40.104;18.336;2024-03-02T10:34:50;17.50;99.90
83019;DHT22;72834;40.104;18.336;2024-03-02T10:37:16;17.70;99.90
83019;DHT22;72834;40.104;18.336;2024-03-02T10:39:48;17.80;99.90
83019;DHT22;72834;40.104;18.336;2024-03-02T10:42:14;18.00;99.90
83019;DHT22;72834;40.104;18.336;2024-03-02T10:44:41;18.20;99.90
83019;DHT22;72834;40.104;18.336;2024-03-02T10:47:09;18.30;99.90
83019;DHT22;72834;40.104;18.336;2024-03-02T10:49:38;18.40;99.90
83019;DHT22;72834;40.104;18.336;2024-03-02T10:52:07;18.70;99.90
83019;DHT22;72834;40.104;18.336;2024-03-02T10:54:35;19.00;99.90
83019;DHT22;72834;40.104;18.336;2024-03-02T10:57:07;19.30;99.90
83019;DHT22;72834;40.104;18.336;2024-03-02T10:59:37;19.60;99.90
83019;DHT22;72834;40.104;18.336;2024-03-02T11:02:07;20.00;99.90
83019;DHT22;72834;40.104;18.336;2024-03-02T11:04:34;19.80;99.90
83019;DHT22;72834;40.104;18.336;2024-03-02T11:07:06;20.10;99.90
83019;DHT22;72834;40.104;18.336;2024-03-02T11:09:40;20.40;99.90
83019;DHT22;72834;40.104;18.336;2024-03-02T11:12:13;20.90;99.90
83019;DHT22;72834;40.104;18.336;2024-03-02T11:14:42;21.20;99.90
83019;DHT22;72834;40.104;18.336;2024-03-02T11:17:13;21.00;99.90
83019;DHT22;72834;40.104;18.336;2024-03-02T11:19:41;20.90;99.90
83019;DHT22;72834;40.104;18.336;2024-03-02T11:22:09;21.20;99.90
83019;DHT22;72834;40.104;18.336;2024-03-02T11:24:35;21.50;99.90
83019;DHT22;72834;40.104;18.336;2024-03-02T11:27:07;22.00;99.90
83019;DHT22;72834;40.104;18.336;2024-03-02T11:32:15;22.30;99.90
83019;DHT22;72834;40.104;18.336;2024-03-02T11:34:44;22.40;99.90
83019;DHT22;72834;40.104;18.336;2024-03-02T11:37:13;22.40;99.90
83019;DHT22;72834;40.104;18.336;2024-03-02T11:39:40;22.60;99.90
83019;DHT22;72834;40.104;18.336;2024-03-02T11:42:09;22.30;99.90
83019;DHT22;72834;40.104;18.336;2024-03-02T11:44:37;22.40;99.90
83019;DHT22;72834;40.104;18.336;2024-03-02T11:47:10;22.80;99.90
83019;DHT22;72834;40.104;18.336;2024-03-02T11:49:51;22.60;99.90
83019;DHT22;72834;40.104;18.336;2024-03-02T11:52:18;22.20;99.90
83019;DHT22;72834;40.104;18.336;2024-03-02T11:54:46;22.50;99.90
83019;DHT22;72834;40.104;18.336;2024-03-02T11:57:17;22.50;99.90
83019;DHT22;72834;40.104;18.336;2024-03-02T11:59:44;22.60;99.90
83019;DHT22;72834;40.104;18.336;2024-03-02T12:02:18;22.70;99.90
83019;DHT22;72834;40.104;18.336;2024-03-02T12:04:46;22.90;99.90
83019;DHT22;72834;40.104;18.336;2024-03-02T12:07:21;22.90;99.90
83019;DHT22;72834;40.104;18.336;2024-03-02T12:09:48;23.10;99.90
83019;DHT22;72834;40.104;18.336;2024-03-02T12:12:15;23.20;99.90
83019;DHT22;72834;40.104;18.336;2024-03-02T12:14:51;23.30;99.90
83019;DHT22;72834;40.104;18.336;2024-03-02T12:17:19;23.50;99.90
83019;DHT22;72834;40.104;18.336;2024-03-02T12:19:46;23.40;99.90
83019;DHT22;72834;40.104;18.336;2024-03-02T12:22:12;23.30;99.90
83019;DHT22;72834;40.104;18.336;2024-03-02T12:24:39;22.90;99.90
83019;DHT22;72834;40.104;18.336;2024-03-02T12:27:13;22.90;99.90
83019;DHT22;72834;40.104;18.336;2024-03-02T12:29:48;22.30;99.90
83019;DHT22;72834;40.104;18.336;2024-03-02T12:32:14;21.20;99.90
83019;DHT22;72834;40.104;18.336;2024-03-02T12:34:41;20.50;99.90
83019;DHT22;72834;40.104;18.336;2024-03-02T12:37:07;19.90;99.90
83019;DHT22;72834;40.104;18.336;2024-03-02T12:39:33;19.60;99.90
83019;DHT22;72834;40.104;18.336;2024-03-02T12:41:59;20.10;99.90
83019;DHT22;72834;40.104;18.336;2024-03-02T12:44:25;20.60;99.90
83019;DHT22;72834;40.104;18.336;2024-03-02T12:46:52;20.60;99.90
83019;DHT22;72834;40.104;18.336;2024-03-02T12:49:22;20.20;99.90
83019;DHT22;72834;40.104;18.336;2024-03-02T12:51:48;19.70;99.90
83019;DHT22;72834;40.104;18.336;2024-03-02T12:54:22;19.20;99.90
83019;DHT22;72834;40.104;18.336;2024-03-02T12:56:48;18.60;99.90
83019;DHT22;72834;40.104;18.336;2024-03-02T12:59:23;18.30;99.90
83019;DHT22;72834;40.104;18.336;2024-03-02T13:01:51;18.10;99.90
83019;DHT22;72834;40.104;18.336;2024-03-02T13:04:22;17.80;99.90
83019;DHT22;72834;40.104;18.336;2024-03-02T13:06:49;17.60;99.90
83019;DHT22;72834;40.104;18.336;2024-03-02T13:09:17;17.50;99.90
83019;DHT22;72834;40.104;18.336;2024-03-02T13:11:43;17.40;99.90
83019;DHT22;72834;40.104;18.336;2024-03-02T13:14:13;17.40;99.90
83019;DHT22;72834;40.104;18.336;2024-03-02T13:16:40;17.30;99.90
83019;DHT22;72834;40.104;18.336;2024-03-02T13:19:08;17.20;99.90
83019;DHT22;72834;40.104;18.336;2024-03-02T13:21:35;17.10;99.90
83019;DHT22;72834;40.104;18.336;2024-03-02T13:24:01;17.00;99.90
83019;DHT22;72834;40.104;18.336;2024-03-02T13:26:29;17.00;99.90
83019;DHT22;72834;40.104;18.336;2024-03-02T13:28:56;17.00;99.90
83019;DHT22;72834;40.104;18.336;2024-03-02T13:31:22;17.00;99.90
83019;DHT22;72834;40.104;18.336;2024-03-02T13:33:48;17.00;99.90
83019;DHT22;72834;40.104;18.336;2024-03-02T13:36:15;17.00;99.90
83019;DHT22;72834;40.104;18.336;2024-03-02T13:38:41;17.00;99.90
83019;DHT22;72834;40.104;18.336;2024-03-02T13:41:08;16.90;99.90
83019;DHT22;72834;40.104;18.336;2024-03-02T13:43:34;16.90;99.90
83019;DHT22;72834;40.104;18.336;2024-03-02T13:46:04;16.90;99.90
83019;DHT22;72834;40.104;18.336;2024-03-02T13:48:30;16.90;99.90
83019;DHT22;72834;40.104;18.336;2024-03-02T13:50:57;16.80;99.90
83019;DHT22;72834;40.104;18.336;2024-03-02T13:53:23;16.80;99.90
83019;DHT22;72834;40.104;18.336;2024-03-02T13:55:51;16.80;99.90
83019;DHT22;72834;40.104;18.336;2024-03-02T13:58:18;16.70;99.90
83019;DHT22;72834;40.104;18.336;2024-03-02T14:00:46;16.60;99.90
83019;DHT22;72834;40.104;18.336;2024-03-02T14:03:13;16.50;99.90
83019;DHT22;72834;40.104;18.336;2024-03-02T14:05:40;16.60;99.90
83019;DHT22;72834;40.104;18.336;2024-03-02T14:08:06;16.60;99.90
83019;DHT22;72834;40.104;18.336;2024-03-02T14:10:32;16.80;99.90
83019;DHT22;72834;40.104;18.336;2024-03-02T14:12:59;16.80;99.90
83019;DHT22;72834;40.104;18.336;2024-03-02T14:15:25;17.00;99.90
83019;DHT22;72834;40.104;18.336;2024-03-02T14:17:52;17.20;99.90
83019;DHT22;72834;40.104;18.336;2024-03-02T14:20:18;17.50;99.90
83019;DHT22;72834;40.104;18.336;2024-03-02T14:22:48;17.70;99.90
83019;DHT22;72834;40.104;18.336;2024-03-02T14:25:15;18.00;99.90
83019;DHT22;72834;40.104;18.336;2024-03-02T14:27:42;18.00;99.90
83019;DHT22;72834;40.104;18.336;2024-03-02T14:30:09;18.10;99.90
83019;DHT22;72834;40.104;18.336;2024-03-02T14:32:35;18.10;99.90
83019;DHT22;72834;40.104;18.336;2024-03-02T14:35:01;18.00;99.90
83019;DHT22;72834;40.104;18.336;2024-03-02T14:37:28;18.00;99.90
83019;DHT22;72834;40.104;18.336;2024-03-02T14:39:55;18.00;99.90
83019;DHT22;72834;40.104;18.336;2024-03-02T14:42:22;17.90;99.90
83019;DHT22;72834;40.104;18.336;2024-03-02T14:44:49;17.90;99.90
83019;DHT22;72834;40.104;18.336;2024-03-02T14:47:15;17.80;99.90
83019;DHT22;72834;40.104;18.336;2024-03-02T14:49:43;17.80;99.90
83019;DHT22;72834;40.104;18.336;2024-03-02T14:52:10;17.70;99.90
83019;DHT22;72834;40.104;18.336;2024-03-02T14:54:36;17.70;99.90
83019;DHT22;72834;40.104;18.336;2024-03-02T14:57:04;17.70;99.90
83019;DHT22;72834;40.104;18.336;2024-03-02T14:59:30;17.70;99.90
83019;DHT22;72834;40.104;18.336;2024-03-02T15:01:57;17.60;99.90
83019;DHT22;72834;40.104;18.336;2024-03-02T15:04:23;17.60;99.90
83019;DHT22;72834;40.104;18.336;2024-03-02T15:06:50;17.60;99.90
83019;DHT22;72834;40.104;18.336;2024-03-02T15:09:16;17.50;99.90
83019;DHT22;72834;40.104;18.336;2024-03-02T15:11:45;17.50;99.90
83019;DHT22;72834;40.104;18.336;2024-03-02T15:14:12;17.40;99.90
83019;DHT22;72834;40.104;18.336;2024-03-02T15:16:38;17.40;99.90
83019;DHT22;72834;40.104;18.336;2024-03-02T15:19:05;17.40;99.90
83019;DHT22;72834;40.104;18.336;2024-03-02T15:21:32;17.30;99.90
83019;DHT22;72834;40.104;18.336;2024-03-02T15:23:58;17.40;99.90